Time;durP1;ratioP1;P1;durP2;ratioP2;P2;SDS_P1;SDS_P2;PMS_P1;PMS_P2;Temp;Humidity;BMP_temperature;BMP_pressure;BME280_temperature;BME280_humidity;BME280_pressure;Samples;Min_cycle;Max_cycle;Signal;HPM_P1;HPM_P2
2023/10/16 00:01:10;;;;;;;4.55;1.80;;;;;;;;;;6051595;23;20027;-64
2023/10/16 00:03:58;;;;;;;3.85;1.73;;;;;;;;;;6050214;23;20512;-64
2023/10/16 00:06:52;;;;;;;4.75;1.80;;;;;;;;;;6050546;23;20026;-59
2023/10/16 00:09:40;;;;;;;4.53;1.80;;;;;;;;;;6051678;23;20063;-63
2023/10/16 00:12:34;;;;;;;10.48;2.35;;;;;;;;;;6049865;23;20034;-63
2023/10/16 00:15:21;;;;;;;5.60;1.50;;;;;;;;;;6050044;23;20091;-63
2023/10/16 00:18:25;;;;;;;4.20;1.70;;;;;;;;;;6048587;23;20074;-63
2023/10/16 00:21:13;;;;;;;7.65;1.45;;;;;;;;;;6052362;23;20034;-63
2023/10/16 00:24:07;;;;;;;7.15;1.85;;;;;;;;;;6049990;23;20399;-64
2023/10/16 00:26:55;;;;;;;5.95;1.63;;;;;;;;;;6051506;23;20075;-64
2023/10/16 00:29:48;;;;;;;5.13;1.48;;;;;;;;;;6051067;23;20105;-64
2023/10/16 00:32:37;;;;;;;8.50;1.70;;;;;;;;;;6051224;23;20023;-65
2023/10/16 00:35:29;;;;;;;4.28;1.30;;;;;;;;;;6050791;23;20050;-64
2023/10/16 00:38:23;;;;;;;3.78;1.92;;;;;;;;;;6049351;23;20027;-65
2023/10/16 00:41:23;;;;;;;3.40;1.52;;;;;;;;;;6051303;23;20034;-65
2023/10/16 00:44:06;;;;;;;7.00;1.85;;;;;;;;;;6050326;23;20349;-52
2023/10/16 00:47:09;;;;;;;7.45;1.70;;;;;;;;;;6052315;23;20027;-62
2023/10/16 00:49:54;;;;;;;3.85;1.75;;;;;;;;;;6048090;23;20503;-63
2023/10/16 00:52:47;;;;;;;3.63;1.63;;;;;;;;;;6049734;23;20513;-63
2023/10/16 00:55:34;;;;;;;5.65;1.73;;;;;;;;;;6050250;23;20023;-62
2023/10/16 00:58:32;;;;;;;5.65;1.75;;;;;;;;;;6047631;23;20078;-63
2023/10/16 01:01:19;;;;;;;5.45;1.55;;;;;;;;;;6048964;23;20410;-55
2023/10/16 01:04:13;;;;;;;3.30;1.45;;;;;;;;;;6046406;23;20082;-58
2023/10/16 01:07:08;;;;;;;3.95;1.40;;;;;;;;;;6048772;23;20023;-58
2023/10/16 01:09:55;;;;;;;5.38;1.65;;;;;;;;;;6048492;23;20401;-58
2023/10/16 01:12:56;;;;;;;6.30;1.42;;;;;;;;;;6029075;23;20034;-58
2023/10/16 01:15:46;;;;;;;3.83;1.52;;;;;;;;;;6049560;23;20257;-59
2023/10/16 01:18:45;;;;;;;2.88;1.63;;;;;;;;;;6047942;23;20360;-53
2023/10/16 01:21:32;;;;;;;5.32;1.30;;;;;;;;;;6047041;23;20086;-51
2023/10/16 01:24:26;;;;;;;6.82;1.73;;;;;;;;;;6047195;23;20031;-62
2023/10/16 01:27:33;;;;;;;3.60;1.48;;;;;;;;;;6050238;23;20123;-63
2023/10/16 01:30:26;;;;;;;3.53;1.40;;;;;;;;;;6050478;23;20101;-63
2023/10/16 01:33:19;;;;;;;2.60;1.63;;;;;;;;;;6050972;23;20062;-63
2023/10/16 01:36:11;;;;;;;3.80;1.80;;;;;;;;;;6052175;23;20023;-62
2023/10/16 01:39:47;;;;;;;5.40;2.25;;;;;;;;;;6047788;23;20038;-56
2023/10/16 01:42:12;;;;;;;3.75;2.15;;;;;;;;;;6052135;23;20027;-62
2023/10/16 01:45:00;;;;;;;8.25;2.25;;;;;;;;;;6051508;23;20027;-62
2023/10/16 01:47:54;;;;;;;4.22;1.73;;;;;;;;;;6050494;23;20054;-63
2023/10/16 01:50:42;;;;;;;1.90;1.20;;;;;;;;;;6050926;23;20548;-62
2023/10/16 01:53:36;;;;;;;4.97;1.50;;;;;;;;;;6051037;23;20083;-62
2023/10/16 01:56:23;;;;;;;6.50;1.63;;;;;;;;;;6050383;23;20050;-55
2023/10/16 01:59:21;;;;;;;9.43;1.90;;;;;;;;;;6048765;23;20029;-63
2023/10/16 02:02:09;;;;;;;9.80;1.65;;;;;;;;;;6049508;23;20027;-62
2023/10/16 02:05:04;;;;;;;5.30;1.58;;;;;;;;;;6049380;23;20019;-62
2023/10/16 02:07:50;;;;;;;3.03;1.48;;;;;;;;;;6048667;23;20083;-63
2023/10/16 02:10:44;;;;;;;6.57;2.28;;;;;;;;;;6049595;23;20086;-63
2023/10/16 02:13:35;;;;;;;3.42;1.60;;;;;;;;;;6048204;23;20065;-62
2023/10/16 02:16:37;;;;;;;3.60;2.08;;;;;;;;;;6050535;23;20401;-52
2023/10/16 02:19:32;;;;;;;3.45;1.80;;;;;;;;;;6048505;23;20027;-63
2023/10/16 02:22:22;;;;;;;6.47;1.77;;;;;;;;;;6050672;23;20406;-65
2023/10/16 02:25:34;;;;;;;4.97;1.70;;;;;;;;;;6047987;23;20564;-64
2023/10/16 02:28:31;;;;;;;4.82;1.70;;;;;;;;;;6049845;23;20082;-64
2023/10/16 02:31:22;;;;;;;3.53;1.80;;;;;;;;;;6050131;23;20602;-64
2023/10/16 02:34:22;;;;;;;4.70;1.73;;;;;;;;;;6051265;23;20030;-64
2023/10/16 02:37:11;;;;;;;5.60;2.35;;;;;;;;;;6053133;23;20086;-57
2023/10/16 02:39:57;;;;;;;7.38;1.83;;;;;;;;;;6052729;23;20330;-58
2023/10/16 02:43:37;;;;;;;7.95;2.28;;;;;;;;;;6052103;23;20023;-57
2023/10/16 02:45:38;;;;;;;6.20;2.13;;;;;;;;;;6044991;23;20054;-55
2023/10/16 02:48:33;;;;;;;6.18;1.90;;;;;;;;;;6050638;23;20358;-56
2023/10/16 02:51:26;;;;;;;3.13;1.38;;;;;;;;;;6052088;23;20023;-50
2023/10/16 02:54:14;;;;;;;6.07;1.45;;;;;;;;;;6051143;23;20461;-59
2023/10/16 02:57:10;;;;;;;5.13;1.83;;;;;;;;;;6049127;23;20521;-59
2023/10/16 02:59:56;;;;;;;5.45;1.70;;;;;;;;;;6048464;23;20098;-56
2023/10/16 03:02:49;;;;;;;3.30;1.38;;;;;;;;;;6051808;23;20026;-58
2023/10/16 03:05:36;;;;;;;3.72;1.35;;;;;;;;;;6050608;23;20023;-58
2023/10/16 03:08:29;;;;;;;3.50;1.17;;;;;;;;;;6047192;23;20030;-59
2023/10/16 03:11:18;;;;;;;3.85;1.35;;;;;;;;;;6047190;23;20043;-63
2023/10/16 03:14:12;;;;;;;3.22;1.08;;;;;;;;;;6049072;23;20074;-64
2023/10/16 03:17:10;;;;;;;2.63;1.40;;;;;;;;;;6045742;23;20478;-64
2023/10/16 03:20:09;;;;;;;4.10;1.50;;;;;;;;;;6046818;23;20026;-64
2023/10/16 03:22:53;;;;;;;5.60;1.48;;;;;;;;;;6051249;23;20026;-64
2023/10/16 03:25:53;;;;;;;5.32;1.30;;;;;;;;;;6051765;23;20027;-63
2023/10/16 03:28:40;;;;;;;2.58;1.10;;;;;;;;;;6051496;23;20083;-64
2023/10/16 03:31:36;;;;;;;8.13;1.38;;;;;;;;;;6045952;23;20382;-52
2023/10/16 03:34:21;;;;;;;4.82;1.67;;;;;;;;;;6051171;23;20038;-50
2023/10/16 03:37:16;;;;;;;4.05;1.50;;;;;;;;;;6048365;23;20023;-51
2023/10/16 03:40:11;;;;;;;5.95;1.60;;;;;;;;;;6049558;23;20022;-54
2023/10/16 03:42:58;;;;;;;5.70;1.60;;;;;;;;;;6051050;23;20094;-49
2023/10/16 03:45:52;;;;;;;4.18;1.38;;;;;;;;;;6049132;23;20026;-55
2023/10/16 03:48:38;;;;;;;2.75;1.27;;;;;;;;;;6050861;23;20676;-62
2023/10/16 03:51:32;;;;;;;3.70;1.20;;;;;;;;;;6052561;23;20026;-53
2023/10/16 03:54:30;;;;;;;4.47;1.90;;;;;;;;;;6052599;23;20029;-50
2023/10/16 03:57:13;;;;;;;3.35;1.42;;;;;;;;;;6051916;23;20489;-50
2023/10/16 04:00:00;;;;;;;6.90;2.08;;;;;;;;;;6050798;23;20325;-47
2023/10/16 04:02:59;;;;;;;2.38;1.35;;;;;;;;;;6052946;23;20058;-52
2023/10/16 04:05:47;;;;;;;5.88;1.58;;;;;;;;;;6049260;23;20477;-64
2023/10/16 04:08:41;;;;;;;7.07;1.55;;;;;;;;;;6054630;23;20038;-62
2023/10/16 04:11:32;;;;;;;3.72;1.50;;;;;;;;;;6053517;23;20037;-61
2023/10/16 04:14:43;;;;;;;1.50;1.05;;;;;;;;;;6055453;23;20031;-62
2023/10/16 04:17:12;;;;;;;3.17;1.60;;;;;;;;;;6052245;23;20058;-62
2023/10/16 04:23:05;;;;;;;3.97;1.20;;;;;;;;;;6050340;23;20311;-53
2023/10/16 04:26:29;;;;;;;2.55;1.30;;;;;;;;;;6049514;23;20023;-53
2023/10/16 04:31:45;;;;;;;3.65;1.45;;;;;;;;;;6048641;23;20651;-52
2023/10/16 04:34:45;;;;;;;1.42;1.15;;;;;;;;;;6051024;23;20192;-53
2023/10/16 04:37:36;;;;;;;7.43;1.45;;;;;;;;;;6049612;23;20030;-53
2023/10/16 04:42:22;;;;;;;4.22;1.50;;;;;;;;;;6049661;23;20027;-53
2023/10/16 04:43:37;;;;;;;3.08;1.40;;;;;;;;;;6052130;23;20507;-64
2023/10/16 04:46:20;;;;;;;4.65;2.63;;;;;;;;;;6050237;23;20030;-64
2023/10/16 04:49:14;;;;;;;8.13;1.35;;;;;;;;;;6050548;23;20030;-64
2023/10/16 04:52:06;;;;;;;8.38;1.67;;;;;;;;;;6052453;23;20038;-64
2023/10/16 04:55:02;;;;;;;11.70;1.50;;;;;;;;;;6051922;23;20571;-65
2023/10/16 04:58:16;;;;;;;1.63;1.42;;;;;;;;;;6050516;23;20413;-64
2023/10/16 05:08:59;;;;;;;3.88;1.50;;;;;;;;;;6049353;23;20533;-64
2023/10/16 05:15:20;;;;;;;3.25;1.55;;;;;;;;;;6050526;23;20026;-64
2023/10/16 05:17:58;;;;;;;7.13;1.25;;;;;;;;;;6051828;23;20026;-64
2023/10/16 05:20:52;;;;;;;3.15;1.40;;;;;;;;;;6052191;23;20105;-53
2023/10/16 06:14:18;;;;;;;5.82;1.42;;;;;;;;;;6051097;23;20038;-51
2023/10/16 06:17:19;;;;;;;3.00;1.27;;;;;;;;;;6049317;23;20679;-65
2023/10/16 06:20:20;;;;;;;2.47;1.20;;;;;;;;;;6053124;23;20054;-64
2023/10/16 06:23:10;;;;;;;4.07;1.20;;;;;;;;;;6054051;23;20027;-64
2023/10/16 06:25:53;;;;;;;7.93;1.63;;;;;;;;;;6048596;23;20301;-65
2023/10/16 06:28:51;;;;;;;2.45;1.27;;;;;;;;;;6051013;23;20026;-65
2023/10/16 06:31:49;;;;;;;3.35;1.48;;;;;;;;;;6051541;23;20361;-52
2023/10/16 06:34:31;;;;;;;4.50;1.20;;;;;;;;;;6051246;23;20102;-57
2023/10/16 06:37:19;;;;;;;1.70;0.95;;;;;;;;;;6051766;23;20086;-59
2023/10/16 06:40:16;;;;;;;3.88;1.10;;;;;;;;;;6051018;23;20294;-58
2023/10/16 06:43:10;;;;;;;2.53;1.60;;;;;;;;;;6054461;23;20027;-57
2023/10/16 06:45:58;;;;;;;5.00;1.75;;;;;;;;;;6049069;23;20453;-57
2023/10/16 06:48:51;;;;;;;6.95;1.63;;;;;;;;;;6055770;23;20027;-56
2023/10/16 06:51:43;;;;;;;3.00;1.65;;;;;;;;;;6053298;23;20031;-48
2023/10/16 06:54:37;;;;;;;2.65;1.50;;;;;;;;;;6053394;23;20027;-57
2023/10/16 06:57:23;;;;;;;11.98;1.35;;;;;;;;;;6049357;23;20371;-58
2023/10/16 07:03:14;;;;;;;2.88;1.50;;;;;;;;;;6009053;23;20047;-55
2023/10/16 07:06:08;;;;;;;7.25;1.23;;;;;;;;;;6053881;23;20110;-56
2023/10/16 07:08:55;;;;;;;3.63;1.75;;;;;;;;;;6054053;23;20023;-63
2023/10/16 07:11:49;;;;;;;3.83;1.80;;;;;;;;;;6056174;23;20023;-61
2023/10/16 07:14:36;;;;;;;1.90;1.33;;;;;;;;;;6051867;23;20023;-61
2023/10/16 07:17:36;;;;;;;2.58;1.42;;;;;;;;;;6053412;23;20018;-61
2023/10/16 07:20:31;;;;;;;1.48;1.17;;;;;;;;;;6053253;23;20026;-61
2023/10/16 07:23:25;;;;;;;2.28;1.30;;;;;;;;;;6056775;23;20018;-62
2023/10/16 07:26:19;;;;;;;2.50;1.30;;;;;;;;;;6052790;23;20099;-61
2023/10/16 07:29:15;;;;;;;5.78;1.40;;;;;;;;;;6052393;23;20026;-58
2023/10/16 07:32:02;;;;;;;4.70;2.30;;;;;;;;;;6055739;23;20531;-56
2023/10/16 07:34:56;;;;;;;3.47;2.10;;;;;;;;;;6055541;23;20019;-55
2023/10/16 07:37:45;;;;;;;7.38;2.33;;;;;;;;;;6055384;23;20027;-54
2023/10/16 07:40:37;;;;;;;7.07;2.40;;;;;;;;;;6054497;23;20023;-56
2023/10/16 07:43:28;;;;;;;6.65;2.70;;;;;;;;;;6050648;23;20030;-56
2023/10/16 07:46:31;;;;;;;4.45;1.77;;;;;;;;;;6051667;23;20030;-52
2023/10/16 07:49:25;;;;;;;3.58;1.92;;;;;;;;;;6053085;23;20023;-54
2023/10/16 07:52:12;;;;;;;10.52;1.88;;;;;;;;;;6055798;23;20117;-53
2023/10/16 07:54:59;;;;;;;4.50;1.70;;;;;;;;;;6053806;23;20034;-52
2023/10/16 07:57:53;;;;;;;3.70;1.83;;;;;;;;;;6055764;23;20027;-55
2023/10/16 08:00:42;;;;;;;3.10;1.60;;;;;;;;;;6056290;23;20034;-53
2023/10/16 08:03:36;;;;;;;4.50;1.52;;;;;;;;;;6054862;23;20027;-58
2023/10/16 08:06:23;;;;;;;2.38;1.42;;;;;;;;;;6052253;23;20050;-63
2023/10/16 08:12:12;;;;;;;4.15;1.65;;;;;;;;;;6056033;23;20105;-64
2023/10/16 08:14:51;;;;;;;7.75;1.80;;;;;;;;;;6049238;23;20160;-62
2023/10/16 08:17:47;;;;;;;4.28;1.65;;;;;;;;;;6054061;23;20023;-62
2023/10/16 08:21:00;;;;;;;3.08;1.60;;;;;;;;;;6053596;23;20026;-63
2023/10/16 08:23:56;;;;;;;4.93;2.00;;;;;;;;;;6054677;23;20050;-51
2023/10/16 08:26:43;;;;;;;6.60;2.00;;;;;;;;;;6049078;23;20250;-63
2023/10/16 08:29:51;;;;;;;7.53;2.80;;;;;;;;;;6054870;23;20027;-63
2023/10/16 08:33:06;;;;;;;5.22;2.45;;;;;;;;;;6049406;23;20394;-62
2023/10/16 08:35:35;;;;;;;5.90;2.30;;;;;;;;;;6052948;23;20023;-63
2023/10/16 08:38:21;;;;;;;4.43;1.77;;;;;;;;;;6054421;23;20030;-63
2023/10/16 08:42:24;;;;;;;1.77;1.30;;;;;;;;;;6051274;23;20027;-52
2023/10/16 08:44:27;;;;;;;2.63;1.77;;;;;;;;;;6025925;23;20031;-59
2023/10/16 08:47:26;;;;;;;2.80;1.67;;;;;;;;;;6053690;23;20030;-60
2023/10/16 08:50:17;;;;;;;3.63;2.03;;;;;;;;;;6053296;23;20026;-60
2023/10/16 08:55:59;;;;;;;2.05;1.48;;;;;;;;;;6051563;23;20090;-59
2023/10/16 08:58:55;;;;;;;2.55;1.60;;;;;;;;;;6054694;23;20074;-59
2023/10/16 09:01:42;;;;;;;5.43;1.70;;;;;;;;;;6048910;23;20023;-62
2023/10/16 09:04:36;;;;;;;6.03;1.50;;;;;;;;;;6051058;23;20086;-63
2023/10/16 09:07:25;;;;;;;2.75;1.42;;;;;;;;;;6053626;23;20027;-63
2023/10/16 09:10:21;;;;;;;3.08;1.50;;;;;;;;;;6054962;23;20117;-63
2023/10/16 09:13:14;;;;;;;2.17;1.50;;;;;;;;;;6053657;23;20033;-63
2023/10/16 09:16:01;;;;;;;4.35;1.92;;;;;;;;;;6054672;23;20633;-63
2023/10/16 09:19:06;;;;;;;3.40;1.55;;;;;;;;;;6052404;23;20034;-49
2023/10/16 09:21:52;;;;;;;3.60;1.92;;;;;;;;;;6051607;23;20022;-66
2023/10/16 09:24:45;;;;;;;3.88;2.28;;;;;;;;;;6049811;23;20402;-66
2023/10/16 09:27:43;;;;;;;4.38;1.83;;;;;;;;;;6055164;23;20031;-67
2023/10/16 09:30:32;;;;;;;5.90;2.22;;;;;;;;;;6052916;23;20023;-66
2023/10/16 09:33:39;;;;;;;5.18;2.28;;;;;;;;;;6052548;23;20031;-66
2023/10/16 09:36:36;;;;;;;3.30;1.63;;;;;;;;;;6052823;23;20019;-61
2023/10/16 09:39:27;;;;;;;4.28;1.60;;;;;;;;;;6053347;23;20097;-52
2023/10/16 09:42:14;;;;;;;5.53;1.80;;;;;;;;;;6052927;23;20023;-48
2023/10/16 09:45:09;;;;;;;4.97;1.33;;;;;;;;;;6052036;23;20022;-54
2023/10/16 09:48:19;;;;;;;2.75;1.65;;;;;;;;;;6051396;23;20029;-53
2023/10/16 09:50:57;;;;;;;2.60;1.52;;;;;;;;;;6051984;23;20023;-53
2023/10/16 09:53:53;;;;;;;3.50;1.10;;;;;;;;;;6054410;23;20026;-59
2023/10/16 09:56:44;;;;;;;1.80;0.90;;;;;;;;;;6050284;23;20473;-52
2023/10/16 09:59:41;;;;;;;1.80;1.02;;;;;;;;;;6052924;23;20273;-52
2023/10/16 10:02:39;;;;;;;1.73;1.33;;;;;;;;;;6052655;23;20405;-51
2023/10/16 10:05:34;;;;;;;1.10;1.00;;;;;;;;;;6051773;23;20102;-49
2023/10/16 10:08:27;;;;;;;1.38;0.90;;;;;;;;;;6052846;23;20031;-55
2023/10/16 10:11:17;;;;;;;1.10;0.82;;;;;;;;;;6053265;23;20026;-53
2023/10/16 10:16:58;;;;;;;0.75;0.43;;;;;;;;;;6055182;23;20027;-63
2023/10/16 10:20:08;;;;;;;3.35;0.80;;;;;;;;;;6051582;23;20069;-63
2023/10/16 10:22:53;;;;;;;0.30;0.30;;;;;;;;;;6052266;23;20022;-63
2023/10/16 10:25:45;;;;;;;0.30;0.30;;;;;;;;;;6052040;23;20023;-63
2023/10/16 10:28:40;;;;;;;0.20;0.20;;;;;;;;;;6053476;23;20338;-63
2023/10/16 10:31:25;;;;;;;0.10;0.10;;;;;;;;;;6051185;23;20465;-60
2023/10/16 10:34:23;;;;;;;1.95;0.40;;;;;;;;;;6050915;23;20063;-63
2023/10/16 10:37:29;;;;;;;0.57;0.30;;;;;;;;;;6055344;23;20473;-62
2023/10/16 10:40:24;;;;;;;0.63;0.40;;;;;;;;;;6053876;23;20111;-64
2023/10/16 10:43:10;;;;;;;0.50;0.30;;;;;;;;;;6056259;23;20022;-62
2023/10/16 10:46:07;;;;;;;0.73;0.40;;;;;;;;;;6053992;23;20022;-63
2023/10/16 10:48:54;;;;;;;0.38;0.20;;;;;;;;;;6054867;23;20097;-61
2023/10/16 10:51:50;;;;;;;0.40;0.28;;;;;;;;;;6053673;23;20469;-57
2023/10/16 10:54:42;;;;;;;0.30;0.30;;;;;;;;;;6054593;23;20322;-60
2023/10/16 10:57:34;;;;;;;0.47;0.47;;;;;;;;;;6055406;23;20030;-59
2023/10/16 11:00:22;;;;;;;0.47;0.35;;;;;;;;;;6053940;23;20071;-60
2023/10/16 11:03:34;;;;;;;12.05;1.27;;;;;;;;;;6054155;23;20023;-59
2023/10/16 11:06:31;;;;;;;1.10;0.57;;;;;;;;;;6052864;23;20027;-59
2023/10/16 11:09:20;;;;;;;0.93;0.50;;;;;;;;;;6054224;23;20058;-60
2023/10/16 11:12:07;;;;;;;0.63;0.50;;;;;;;;;;6054056;23;20022;-65
2023/10/16 11:15:05;;;;;;;0.68;0.47;;;;;;;;;;6052990;23;20034;-65
2023/10/16 11:17:53;;;;;;;0.40;0.40;;;;;;;;;;6052369;23;20107;-65
2023/10/16 11:20:49;;;;;;;0.65;0.43;;;;;;;;;;6047806;23;20031;-66
2023/10/16 11:23:42;;;;;;;0.40;0.40;;;;;;;;;;6052415;23;20631;-66
2023/10/16 11:26:30;;;;;;;1.30;0.70;;;;;;;;;;6053224;23;20031;-66
2023/10/16 11:29:33;;;;;;;1.08;0.60;;;;;;;;;;6054424;23;20357;-60
2023/10/16 11:32:16;;;;;;;0.93;0.50;;;;;;;;;;6052112;23;20059;-60
2023/10/16 11:35:14;;;;;;;0.80;0.55;;;;;;;;;;6052029;23;20366;-59
2023/10/16 11:38:13;;;;;;;0.63;0.40;;;;;;;;;;6055521;23;20440;-59
2023/10/16 11:41:11;;;;;;;0.75;0.40;;;;;;;;;;6053308;23;20074;-61
2023/10/16 11:44:14;;;;;;;1.02;0.20;;;;;;;;;;6055000;23;20022;-60
2023/10/16 11:47:08;;;;;;;0.50;0.32;;;;;;;;;;6052061;23;20335;-59
2023/10/16 11:49:54;;;;;;;0.40;0.40;;;;;;;;;;6052005;23;20090;-59
2023/10/16 11:52:48;;;;;;;0.30;0.30;;;;;;;;;;6051584;23;20406;-59
2023/10/16 11:55:36;;;;;;;0.60;0.38;;;;;;;;;;6054282;23;20030;-59
2023/10/16 11:58:31;;;;;;;2.10;0.40;;;;;;;;;;6053190;23;20027;-59
2023/10/16 12:01:18;;;;;;;0.82;0.30;;;;;;;;;;6051081;23;20495;-60
2023/10/16 12:04:29;;;;;;;1.33;0.30;;;;;;;;;;6039733;23;20388;-61
2023/10/16 12:07:16;;;;;;;0.63;0.30;;;;;;;;;;6053081;23;20026;-63
2023/10/16 12:10:15;;;;;;;0.85;0.32;;;;;;;;;;6052431;23;20818;-63
2023/10/16 12:12:58;;;;;;;0.25;0.25;;;;;;;;;;6054666;23;20480;-62
2023/10/16 12:15:51;;;;;;;0.65;0.30;;;;;;;;;;6053789;23;20031;-62
2023/10/16 12:18:56;;;;;;;2.05;0.30;;;;;;;;;;6053707;23;20023;-63
2023/10/16 12:21:55;;;;;;;0.45;0.30;;;;;;;;;;6053314;23;20361;-53
2023/10/16 12:24:43;;;;;;;0.55;0.38;;;;;;;;;;6052076;23;20023;-60
2023/10/16 12:27:40;;;;;;;0.88;0.35;;;;;;;;;;6053949;23;20030;-59
2023/10/16 12:30:27;;;;;;;0.40;0.35;;;;;;;;;;6051839;23;20023;-60
2023/10/16 12:33:21;;;;;;;1.67;0.50;;;;;;;;;;6050566;23;20031;-59
2023/10/16 12:36:10;;;;;;;0.55;0.55;;;;;;;;;;6048434;23;20019;-59
2023/10/16 12:39:13;;;;;;;0.30;0.28;;;;;;;;;;6052606;23;20476;-63
2023/10/16 12:41:49;;;;;;;0.57;0.40;;;;;;;;;;6050840;23;20302;-61
2023/10/16 12:44:44;;;;;;;1.02;0.60;;;;;;;;;;6051574;23;20113;-61
2023/10/16 12:47:31;;;;;;;0.80;0.32;;;;;;;;;;6051387;23;20090;-61
2023/10/16 12:50:26;;;;;;;0.25;0.25;;;;;;;;;;6054594;23;20027;-61
2023/10/16 12:53:33;;;;;;;0.75;0.57;;;;;;;;;;6053029;23;20594;-61
2023/10/16 12:56:27;;;;;;;0.20;0.20;;;;;;;;;;6052609;23;20098;-61
2023/10/16 12:59:14;;;;;;;2.50;0.40;;;;;;;;;;6051525;23;20023;-63
2023/10/16 13:02:09;;;;;;;0.40;0.38;;;;;;;;;;6051813;23;20022;-63
2023/10/16 13:04:57;;;;;;;0.60;0.50;;;;;;;;;;6052207;23;20031;-62
2023/10/16 13:07:49;;;;;;;0.38;0.20;;;;;;;;;;6053555;23;20223;-62
2023/10/16 13:10:36;;;;;;;0.60;0.30;;;;;;;;;;6053765;23;20031;-63
2023/10/16 13:13:30;;;;;;;1.05;0.40;;;;;;;;;;6051832;23;20078;-62
2023/10/16 13:16:24;;;;;;;0.52;0.30;;;;;;;;;;6050639;23;20027;-59
2023/10/16 13:19:18;;;;;;;0.95;0.50;;;;;;;;;;6052314;23;20023;-64
2023/10/16 13:22:20;;;;;;;0.20;0.20;;;;;;;;;;6050618;23;20026;-64
2023/10/16 13:25:11;;;;;;;0.20;0.20;;;;;;;;;;6052585;23;20544;-63
2023/10/16 13:28:00;;;;;;;1.85;0.20;;;;;;;;;;6054058;23;20026;-64
2023/10/16 13:30:48;;;;;;;1.73;0.70;;;;;;;;;;6050030;23;20070;-63
2023/10/16 13:33:42;;;;;;;0.85;0.50;;;;;;;;;;6049520;23;20034;-53
2023/10/16 13:36:35;;;;;;;0.40;0.40;;;;;;;;;;6050144;23;20027;-61
2023/10/16 13:39:30;;;;;;;0.73;0.40;;;;;;;;;;6052444;23;20488;-63
2023/10/16 13:42:14;;;;;;;0.93;0.38;;;;;;;;;;6052788;23;20495;-62
2023/10/16 13:45:12;;;;;;;2.00;0.30;;;;;;;;;;6050582;23;20022;-63
2023/10/16 13:47:55;;;;;;;2.35;0.47;;;;;;;;;;6049781;23;20034;-63
2023/10/16 13:50:49;;;;;;;1.33;0.52;;;;;;;;;;6052820;23;20026;-64
2023/10/16 13:53:36;;;;;;;3.78;0.70;;;;;;;;;;6052968;23;20074;-59
2023/10/16 13:56:30;;;;;;;0.50;0.30;;;;;;;;;;6050283;23;20027;-51
2023/10/16 13:59:20;;;;;;;0.68;0.50;;;;;;;;;;6053797;23;20054;-51
2023/10/16 14:02:16;;;;;;;0.40;0.40;;;;;;;;;;6054576;23;20090;-49
2023/10/16 14:05:06;;;;;;;2.60;0.50;;;;;;;;;;6053025;23;20027;-52
2023/10/16 14:07:55;;;;;;;3.50;0.90;;;;;;;;;;6054884;23;20051;-53
2023/10/16 14:10:46;;;;;;;1.17;0.53;;;;;;;;;;6056370;23;20023;-63
2023/10/16 14:13:40;;;;;;;0.88;0.35;;;;;;;;;;6055055;23;20023;-63
2023/10/16 14:16:32;;;;;;;0.95;0.63;;;;;;;;;;6054844;23;20025;-64
2023/10/16 14:19:35;;;;;;;1.13;0.50;;;;;;;;;;6056514;23;20431;-64
2023/10/16 14:22:29;;;;;;;1.60;0.60;;;;;;;;;;6057962;23;20055;-63
2023/10/16 14:25:31;;;;;;;0.95;0.43;;;;;;;;;;6057970;23;20098;-63
2023/10/16 14:28:27;;;;;;;1.77;0.45;;;;;;;;;;6058340;23;20778;-64
2023/10/16 14:31:24;;;;;;;2.30;0.50;;;;;;;;;;6057453;23;20524;-59
2023/10/16 14:34:08;;;;;;;1.35;0.50;;;;;;;;;;6057145;23;20022;-58
2023/10/16 14:37:05;;;;;;;1.65;0.68;;;;;;;;;;6053498;23;20019;-59
2023/10/16 14:39:51;;;;;;;0.47;0.35;;;;;;;;;;6055223;23;20023;-60
2023/10/16 14:42:44;;;;;;;10.02;0.65;;;;;;;;;;6055480;23;20090;-57
2023/10/16 14:45:32;;;;;;;2.65;0.55;;;;;;;;;;6056014;23;20659;-59
2023/10/16 14:48:26;;;;;;;1.08;0.60;;;;;;;;;;6055602;23;20023;-54
2023/10/16 14:51:21;;;;;;;3.72;0.80;;;;;;;;;;6053298;23;20342;-50
2023/10/16 14:53:49;;;;;;;2.38;0.80;;;;;;;;;;6055608;23;20062;-50
2023/10/16 14:56:25;;;;;;;1.73;0.55;;;;;;;;;;6054703;23;20023;-53
2023/10/16 14:58:52;;;;;;;4.75;0.47;;;;;;;;;;6056687;23;20034;-53
2023/10/16 15:01:27;;;;;;;2.22;0.50;;;;;;;;;;6063768;23;20476;-50
2023/10/16 15:04:17;;;;;;;0.85;0.50;;;;;;;;;;6055010;23;20489;-52
2023/10/16 15:07:14;;;;;;;2.30;0.57;;;;;;;;;;6054385;23;20058;-64
2023/10/16 15:10:02;;;;;;;2.78;0.82;;;;;;;;;;6054069;23;20023;-63
2023/10/16 15:13:15;;;;;;;3.38;0.77;;;;;;;;;;6054707;23;20030;-63
2023/10/16 15:16:06;;;;;;;1.77;0.40;;;;;;;;;;6051877;23;20027;-63
2023/10/16 15:19:10;;;;;;;0.93;0.22;;;;;;;;;;6053346;23;20018;-64
2023/10/16 15:22:03;;;;;;;1.02;0.35;;;;;;;;;;6052019;23;20600;-63
2023/10/16 15:24:57;;;;;;;1.35;0.50;;;;;;;;;;6053369;23;20046;-60
2023/10/16 15:27:51;;;;;;;1.25;0.75;;;;;;;;;;6051332;23;20670;-59
2023/10/16 15:30:50;;;;;;;2.83;0.63;;;;;;;;;;6056252;23;20474;-58
2023/10/16 15:33:44;;;;;;;3.08;0.70;;;;;;;;;;6055411;23;20098;-58
2023/10/16 15:36:32;;;;;;;4.57;1.02;;;;;;;;;;6053604;23;20473;-58
2023/10/16 15:39:25;;;;;;;1.17;0.52;;;;;;;;;;6054068;23;20027;-58
2023/10/16 15:42:12;;;;;;;0.88;0.40;;;;;;;;;;6051994;23;20376;-57
2023/10/16 15:45:06;;;;;;;0.93;0.60;;;;;;;;;;6054920;23;20394;-59
2023/10/16 15:47:58;;;;;;;2.60;0.90;;;;;;;;;;6057633;23;20496;-50
2023/10/16 15:50:52;;;;;;;1.38;0.70;;;;;;;;;;6051062;23;20086;-48
2023/10/16 15:53:45;;;;;;;2.10;0.60;;;;;;;;;;6054134;23;20023;-51
2023/10/16 15:56:33;;;;;;;2.97;0.90;;;;;;;;;;6051208;23;20469;-51
2023/10/16 15:59:21;;;;;;;2.42;0.95;;;;;;;;;;6051901;23;20026;-52
2023/10/16 16:02:16;;;;;;;2.67;0.70;;;;;;;;;;6052440;23;20042;-61
2023/10/16 16:05:01;;;;;;;2.55;1.25;;;;;;;;;;6052612;23;20473;-51
2023/10/16 16:08:04;;;;;;;;;;;;;;;;;;6054961;23;20492;-46
2023/10/16 16:10:51;;;;;;;;;;;;;;;;;;6053579;23;19988;-50
2023/10/16 16:13:45;;;;;;;3.60;1.13;;;;;;;;;;6052544;23;20597;-49
2023/10/16 16:16:32;;;;;;;3.13;1.55;;;;;;;;;;6052392;23;20224;-50
2023/10/16 16:19:38;;;;;;;2.90;0.93;;;;;;;;;;6050596;23;20027;-62
2023/10/16 16:22:23;;;;;;;4.68;1.35;;;;;;;;;;6050634;23;20157;-61
2023/10/16 16:25:18;;;;;;;1.63;0.95;;;;;;;;;;6050772;23;20034;-61
2023/10/16 16:28:05;;;;;;;2.97;1.10;;;;;;;;;;6049919;23;20090;-61
2023/10/16 16:30:59;;;;;;;1.58;1.25;;;;;;;;;;6052487;23;20022;-61
2023/10/16 16:33:53;;;;;;;3.83;1.80;;;;;;;;;;6054435;23;20038;-61
2023/10/16 16:36:47;;;;;;;6.32;1.25;;;;;;;;;;6052276;23;20027;-61
2023/10/16 16:39:35;;;;;;;1.50;0.68;;;;;;;;;;6052948;23;20382;-62
2023/10/16 16:42:29;;;;;;;2.30;0.73;;;;;;;;;;6051471;23;20106;-57
2023/10/16 16:45:17;;;;;;;2.90;1.17;;;;;;;;;;6050990;23;20026;-58
2023/10/16 16:48:10;;;;;;;3.35;1.00;;;;;;;;;;6052480;23;20717;-57
2023/10/16 16:51:04;;;;;;;1.90;1.10;;;;;;;;;;6053962;23;20027;-57
2023/10/16 16:53:58;;;;;;;3.88;1.08;;;;;;;;;;6055066;23;20035;-57
2023/10/16 16:56:47;;;;;;;7.00;1.15;;;;;;;;;;6052779;23;20033;-48
2023/10/16 16:59:40;;;;;;;4.22;1.00;;;;;;;;;;6052202;23;20026;-64
2023/10/16 17:02:26;;;;;;;3.75;1.10;;;;;;;;;;6051165;23;20049;-64
2023/10/16 17:05:21;;;;;;;1.88;1.10;;;;;;;;;;6053087;23;20022;-64
2023/10/16 17:08:08;;;;;;;4.93;1.00;;;;;;;;;;6053810;23;20098;-63
2023/10/16 17:11:04;;;;;;;2.85;0.95;;;;;;;;;;6057362;23;20022;-65
2023/10/16 17:13:50;;;;;;;1.88;1.13;;;;;;;;;;6053721;23;20064;-64
2023/10/16 17:16:45;;;;;;;1.63;1.00;;;;;;;;;;6053487;23;20027;-64
2023/10/16 17:19:44;;;;;;;5.20;1.17;;;;;;;;;;6055515;23;20027;-60
2023/10/16 17:22:31;;;;;;;3.50;1.08;;;;;;;;;;6055188;23;20022;-60
2023/10/16 17:25:28;;;;;;;1.92;0.82;;;;;;;;;;6054695;23;20413;-60
2023/10/16 17:28:16;;;;;;;11.38;1.00;;;;;;;;;;6055777;23;20030;-60
2023/10/16 17:31:09;;;;;;;3.63;1.02;;;;;;;;;;6051357;23;20023;-60
2023/10/16 17:33:56;;;;;;;2.05;1.00;;;;;;;;;;6052129;23;20123;-60
2023/10/16 17:36:50;;;;;;;1.67;1.00;;;;;;;;;;6051899;23;20027;-63
2023/10/16 17:39:38;;;;;;;2.00;1.10;;;;;;;;;;6053190;23;20555;-64
2023/10/16 17:42:31;;;;;;;6.03;3.13;;;;;;;;;;6051139;23;20720;-64
2023/10/16 17:45:18;;;;;;;3.28;1.38;;;;;;;;;;6054509;23;20078;-64
2023/10/16 17:48:12;;;;;;;4.03;2.03;;;;;;;;;;6053429;23;20031;-64
2023/10/16 17:50:59;;;;;;;14.20;6.63;;;;;;;;;;6053499;23;20026;-66
2023/10/16 17:53:53;;;;;;;5.28;1.67;;;;;;;;;;6054145;23;20023;-65
2023/10/16 17:56:41;;;;;;;6.82;3.08;;;;;;;;;;6053086;23;20030;-51
2023/10/16 17:59:34;;;;;;;3.95;1.60;;;;;;;;;;6053776;23;20480;-52
2023/10/16 18:02:29;;;;;;;5.95;2.25;;;;;;;;;;6053025;23;20626;-54
2023/10/16 18:05:16;;;;;;;2.60;1.80;;;;;;;;;;6051571;23;20078;-57
2023/10/16 18:08:10;;;;;;;4.22;1.50;;;;;;;;;;6052223;23;20030;-54
2023/10/16 18:11:00;;;;;;;4.20;1.98;;;;;;;;;;6053903;23;20027;-59
2023/10/16 18:13:57;;;;;;;5.75;1.50;;;;;;;;;;6054009;23;20075;-60
2023/10/16 18:16:42;;;;;;;5.10;1.90;;;;;;;;;;6053966;23;20023;-59
2023/10/16 18:19:39;;;;;;;2.45;1.42;;;;;;;;;;6052256;23;20244;-60
2023/10/16 18:22:32;;;;;;;4.15;1.50;;;;;;;;;;6051882;23;20560;-59
2023/10/16 18:25:24;;;;;;;4.60;1.30;;;;;;;;;;6053028;23;20027;-60
2023/10/16 18:28:12;;;;;;;3.25;1.15;;;;;;;;;;6052814;23;20399;-59
2023/10/16 18:31:05;;;;;;;4.68;1.38;;;;;;;;;;6053329;23;20114;-53
2023/10/16 18:33:52;;;;;;;2.80;1.52;;;;;;;;;;6053054;23;20918;-53